Current Weather

Harry Mwaanga Nkumbula Intl

Harry Mwaanga Nkumbula Intl, Zambia (FLHN)

Report from: Sunday, December 4, 2022 6:00 AM UTC
Current time: Sunday, December 4, 2022 1:06 PM UTC

Nearby weather
Weather history
Weather forecast

Temperature25.0°C (77.0°F)
Dew point16.0°C (60.8°F)
Winds 1 kts (0.5 m/s, 1.2 mph) Vrb
Winds variableWinds variable
Clouds Sky clear
Altimeter29.97 in.Hg (1015 mB)
Relative humidity57 %
Density altitude1,350 ft. (411 m)
Remarks Ceiling and visibility OK
No significant changes expected in the next two hours
Flight conditions Visual Meteorological Conditions
Raw dataFLHN 040600Z VRB01KT CAVOK 25/16 Q1015 NOSIG
An error has occurred. This application may no longer respond until reloaded. Reload 🗙